createdAt,value
2019-02-14T00:01:44.560Z,4.90
2019-02-14T00:04:17.950Z,5.67
2019-02-14T00:06:47.843Z,5.03
2019-02-14T00:09:18.256Z,5.47
2019-02-14T00:11:48.653Z,5.50
2019-02-14T00:14:18.124Z,5.47
2019-02-14T00:16:47.447Z,6.50
2019-02-14T00:19:17.219Z,5.93
2019-02-14T00:24:34.977Z,6.80
2019-02-14T00:27:04.603Z,6.30
2019-02-14T00:29:35.346Z,6.70
2019-02-14T00:32:06.077Z,6.53
2019-02-14T00:34:35.398Z,5.87
2019-02-14T00:37:04.818Z,6.70
2019-02-14T00:44:51.669Z,6.33
2019-02-14T00:47:20.993Z,7.27
2019-02-14T00:49:50.494Z,7.47
2019-02-14T00:52:19.877Z,6.30
2019-02-14T00:57:39.770Z,7.47
2019-02-14T01:03:24.285Z,6.93
2019-02-14T01:05:54.108Z,6.97
2019-02-14T01:08:23.531Z,7.10
2019-02-14T01:10:55.609Z,7.23
2019-02-14T01:13:25.094Z,6.60
2019-02-14T01:16:13.854Z,6.90
2019-02-14T01:21:18.730Z,7.17
2019-02-14T01:24:27.676Z,6.80
2019-02-14T01:27:16.146Z,6.90
2019-02-14T01:29:45.717Z,7.13
2019-02-14T01:32:33.914Z,6.97
2019-02-14T01:35:03.351Z,6.90
2019-02-14T01:37:32.845Z,7.10
2019-02-14T01:40:02.224Z,6.97
2019-02-14T01:42:31.909Z,7.70
2019-02-14T01:45:01.252Z,7.57
2019-02-14T01:47:30.713Z,6.20
2019-02-14T01:50:00.469Z,7.07
2019-02-14T01:52:29.873Z,6.60
2019-02-14T01:57:34.277Z,7.07
2019-02-14T02:02:40.064Z,7.73
2019-02-14T02:05:09.592Z,7.87
2019-02-14T02:07:38.947Z,7.33
2019-02-14T02:10:10.092Z,7.80
2019-02-14T02:12:40.017Z,8.57
2019-02-14T02:15:11.113Z,8.00
2019-02-14T02:17:40.693Z,9.17
2019-02-14T02:20:10.755Z,8.50
2019-02-14T02:22:41.281Z,9.20
2019-02-14T02:25:12.227Z,9.47
2019-02-14T02:27:41.678Z,8.67
2019-02-14T02:30:13.073Z,9.67
2019-02-14T02:32:42.434Z,10.03
2019-02-14T02:35:31.127Z,9.30
2019-02-14T02:38:00.633Z,9.47
2019-02-14T02:40:30.807Z,9.20
2019-02-14T02:43:00.141Z,9.50
2019-02-14T02:45:29.526Z,8.03
2019-02-14T02:47:58.969Z,8.90
2019-02-14T02:50:28.325Z,8.30
2019-02-14T02:52:57.822Z,8.20
2019-02-14T02:55:27.259Z,8.87
2019-02-14T02:57:56.754Z,8.00
2019-02-14T03:00:26.307Z,8.00
2019-02-14T03:05:43.939Z,7.23
2019-02-14T03:08:13.286Z,7.50
2019-02-14T03:10:42.721Z,7.10
2019-02-14T03:13:12.131Z,8.30
2019-02-14T03:15:41.462Z,7.30
2019-02-14T03:18:10.994Z,7.57
2019-02-14T03:20:40.303Z,6.67
2019-02-14T03:23:09.638Z,6.60
2019-02-14T03:30:48.881Z,6.47
2019-02-14T03:33:18.292Z,7.20
2019-02-14T03:35:47.735Z,8.10
2019-02-14T03:38:17.091Z,6.70
2019-02-14T03:43:35.234Z,6.73
2019-02-14T03:46:04.591Z,6.13
2019-02-14T03:48:33.985Z,7.57
2019-02-14T03:51:03.319Z,6.10
2019-02-14T03:53:32.835Z,6.50
2019-02-14T03:56:02.145Z,6.83
2019-02-14T03:58:31.567Z,5.50
2019-02-14T04:01:00.929Z,5.80
2019-02-14T04:03:30.494Z,6.17
2019-02-14T04:05:59.824Z,6.83
2019-02-14T04:08:29.509Z,7.13
2019-02-14T04:10:58.870Z,7.30
2019-02-14T04:13:28.560Z,6.50
2019-02-14T04:15:57.984Z,7.83
2019-02-14T04:18:27.535Z,7.60
2019-02-14T04:20:56.860Z,7.63
2019-02-14T04:23:26.608Z,6.70
2019-02-14T04:25:55.949Z,7.87
2019-02-14T04:28:25.530Z,7.47
2019-02-14T04:30:54.860Z,7.83
2019-02-14T04:33:43.359Z,7.67
2019-02-14T04:36:13.136Z,7.23
2019-02-14T04:38:42.478Z,6.83
2019-02-14T04:41:12.180Z,7.00
2019-02-14T04:43:41.514Z,6.93
2019-02-14T04:46:11.175Z,6.47
2019-02-14T04:48:40.514Z,7.07
2019-02-14T04:51:10.188Z,6.43
2019-02-14T04:53:39.567Z,6.40
2019-02-14T04:56:09.216Z,6.33
2019-02-14T04:58:38.599Z,6.50
2019-02-14T05:01:08.243Z,5.70
2019-02-14T05:03:37.649Z,6.00
2019-02-14T05:06:07.289Z,6.27
2019-02-14T05:08:36.630Z,6.03
2019-02-14T05:11:06.260Z,7.03
2019-02-14T05:13:35.632Z,6.07
2019-02-14T05:16:04.961Z,6.27
2019-02-14T05:18:34.395Z,5.37
2019-02-14T05:21:03.733Z,6.17
2019-02-14T05:23:33.123Z,5.73
2019-02-14T05:26:02.431Z,6.00
2019-02-14T05:28:31.796Z,5.97
2019-02-14T05:31:01.385Z,5.93
2019-02-14T05:33:49.747Z,6.00
2019-02-14T05:36:19.053Z,6.23
2019-02-14T05:38:48.519Z,5.90
2019-02-14T05:41:17.956Z,6.50
2019-02-14T05:43:47.436Z,6.20
2019-02-14T05:46:17.229Z,6.03
2019-02-14T05:48:46.873Z,6.00
2019-02-14T05:51:16.265Z,8.73
2019-02-14T05:53:45.762Z,6.67
2019-02-14T05:56:15.811Z,6.63
2019-02-14T05:58:45.268Z,6.77
2019-02-14T06:01:18.396Z,7.27
2019-02-14T06:03:50.345Z,6.67
2019-02-14T06:06:20.282Z,7.00
2019-02-14T06:08:49.875Z,7.73
2019-02-14T06:11:19.293Z,7.80
2019-02-14T06:13:48.988Z,6.93
2019-02-14T06:19:06.724Z,7.53
2019-02-14T06:21:36.545Z,8.03
2019-02-14T06:24:05.886Z,7.50
2019-02-14T06:26:35.407Z,7.63
2019-02-14T06:29:04.797Z,8.07
2019-02-14T06:31:34.359Z,7.63
2019-02-14T06:34:03.677Z,7.70
2019-02-14T06:36:33.119Z,7.97
2019-02-14T06:39:02.435Z,7.83
2019-02-14T06:41:31.898Z,6.53
2019-02-14T06:44:01.229Z,8.63
2019-02-14T06:46:30.763Z,8.70
2019-02-14T06:49:00.103Z,8.27
2019-02-14T06:51:29.434Z,7.97
2019-02-14T06:53:58.867Z,8.87
2019-02-14T06:56:28.243Z,7.67
2019-02-14T07:01:45.839Z,8.67
2019-02-14T07:04:15.126Z,8.53
2019-02-14T07:07:03.623Z,7.40
2019-02-14T07:09:33.272Z,8.40
2019-02-14T07:12:02.532Z,8.70
2019-02-14T07:14:50.796Z,9.03
2019-02-14T07:17:20.510Z,7.70
2019-02-14T07:19:49.821Z,8.30
2019-02-14T07:22:19.241Z,7.43
2019-02-14T07:24:48.946Z,8.27
2019-02-14T07:27:18.562Z,8.23
2019-02-14T07:29:48.635Z,8.37
2019-02-14T07:32:18.009Z,8.33
2019-02-14T07:34:47.544Z,8.40
2019-02-14T07:37:17.710Z,8.07
2019-02-14T07:43:02.779Z,7.53
2019-02-14T07:48:23.472Z,9.27
2019-02-14T07:56:42.575Z,9.53
2019-02-14T07:59:12.766Z,9.53
2019-02-14T08:02:01.998Z,9.47
2019-02-14T08:04:32.927Z,8.20
2019-02-14T08:07:03.942Z,9.20
2019-02-14T08:09:54.200Z,8.43
2019-02-14T08:12:24.351Z,8.77
2019-02-14T08:14:57.658Z,8.90
2019-02-14T08:20:30.356Z,8.90
2019-02-14T08:22:59.736Z,9.20
2019-02-14T08:25:29.267Z,8.97
2019-02-14T08:27:58.605Z,9.33
2019-02-14T08:30:28.119Z,9.97
2019-02-14T08:32:59.564Z,8.70
2019-02-14T08:35:29.088Z,10.10
2019-02-14T08:37:58.388Z,10.20
2019-02-14T08:40:27.896Z,9.10
2019-02-14T08:42:58.628Z,8.93
2019-02-14T08:45:28.578Z,8.97
2019-02-14T08:47:59.788Z,8.70
2019-02-14T08:50:48.135Z,9.18
2019-02-14T08:53:17.506Z,8.97
2019-02-14T08:55:46.883Z,8.90
2019-02-14T08:58:16.235Z,8.53
2019-02-14T09:00:45.743Z,10.23
2019-02-14T09:03:34.249Z,9.60
2019-02-14T09:06:03.767Z,10.17
2019-02-14T09:08:33.113Z,9.40
2019-02-14T09:11:02.450Z,8.80
2019-02-14T09:13:32.018Z,9.60
2019-02-14T09:16:01.361Z,9.13
2019-02-14T09:18:30.872Z,9.43
2019-02-14T09:23:35.073Z,9.40
2019-02-14T09:26:04.595Z,8.73
2019-02-14T09:28:34.159Z,8.13
2019-02-14T09:31:03.558Z,8.67
2019-02-14T09:33:32.921Z,8.93
2019-02-14T09:38:50.533Z,8.23
2019-02-14T09:41:19.998Z,8.20
2019-02-14T09:43:49.307Z,6.93
2019-02-14T09:46:19.000Z,8.47
2019-02-14T09:48:48.453Z,8.53
2019-02-14T09:51:37.045Z,7.93
2019-02-14T09:54:06.451Z,8.83
2019-02-14T09:56:35.809Z,7.43
2019-02-14T09:59:24.230Z,8.23
2019-02-14T10:02:12.574Z,6.83
2019-02-14T10:04:42.401Z,7.83
2019-02-14T10:07:11.742Z,8.23
2019-02-14T10:09:41.302Z,7.80
2019-02-14T10:12:10.702Z,8.23
2019-02-14T10:14:40.343Z,8.17
2019-02-14T10:17:09.672Z,7.90
2019-02-14T10:19:39.321Z,7.10
2019-02-14T10:22:08.616Z,8.10
2019-02-14T10:24:38.202Z,7.93
2019-02-14T10:27:07.581Z,7.57
2019-02-14T10:29:37.360Z,7.10
2019-02-14T10:32:06.710Z,7.57
2019-02-14T10:34:36.335Z,8.37
2019-02-14T10:37:05.698Z,7.63
2019-02-14T10:39:35.302Z,7.77
2019-02-14T10:42:04.680Z,6.83
2019-02-14T10:44:34.222Z,8.30
2019-02-14T10:47:03.512Z,6.63
2019-02-14T10:49:33.634Z,6.80
2019-02-14T10:52:02.968Z,6.67
2019-02-14T10:54:32.305Z,7.03
2019-02-14T10:57:01.612Z,6.53
2019-02-14T11:02:06.898Z,6.00
2019-02-14T11:04:36.229Z,6.03
2019-02-14T11:07:24.548Z,6.40
2019-02-14T11:09:54.150Z,5.60
2019-02-14T11:12:23.571Z,5.97
2019-02-14T11:14:53.216Z,5.50
2019-02-14T11:17:22.626Z,5.50
2019-02-14T11:19:52.307Z,6.35
2019-02-14T11:22:21.619Z,5.57
2019-02-14T11:24:51.184Z,5.70
2019-02-14T11:27:20.471Z,7.07
2019-02-14T11:29:50.010Z,6.70
2019-02-14T11:35:08.754Z,6.07
2019-02-14T11:37:38.365Z,6.73
2019-02-14T11:40:09.290Z,6.63
2019-02-14T11:42:38.665Z,6.63
2019-02-14T11:45:10.537Z,6.87
2019-02-14T11:47:40.000Z,6.63
2019-02-14T11:50:10.492Z,7.40
2019-02-14T11:52:39.813Z,7.87
2019-02-14T11:55:09.492Z,7.37
2019-02-14T11:57:57.970Z,8.00
2019-02-14T12:00:27.508Z,8.87
2019-02-14T12:02:57.520Z,7.53
2019-02-14T12:05:26.798Z,8.13
2019-02-14T12:07:58.654Z,7.90
2019-02-14T12:10:28.010Z,8.60
2019-02-14T12:15:46.154Z,7.90
2019-02-14T12:18:15.479Z,9.33
2019-02-14T12:20:44.983Z,8.17
2019-02-14T12:23:14.283Z,8.37
2019-02-14T12:25:43.751Z,8.70
2019-02-14T12:28:13.061Z,8.53
2019-02-14T12:30:42.827Z,8.80
2019-02-14T12:33:12.136Z,9.27
2019-02-14T12:35:41.453Z,8.57
2019-02-14T12:38:10.772Z,7.60
2019-02-14T12:40:40.409Z,9.23
2019-02-14T12:43:09.745Z,9.07
2019-02-14T12:45:39.311Z,10.30
2019-02-14T12:48:08.620Z,9.57
2019-02-14T12:50:38.327Z,9.47
2019-02-14T12:53:07.635Z,9.20
2019-02-14T12:58:25.545Z,9.37
2019-02-14T13:03:43.112Z,9.80
2019-02-14T13:06:12.448Z,8.40
2019-02-14T13:08:41.795Z,9.53
2019-02-14T13:11:11.260Z,10.23
2019-02-14T13:13:40.750Z,9.93
2019-02-14T13:16:10.314Z,10.33
2019-02-14T13:18:39.648Z,11.07
2019-02-14T13:21:09.335Z,10.07
2019-02-14T13:23:38.664Z,11.40
2019-02-14T13:26:08.188Z,12.27
2019-02-14T13:28:37.510Z,10.53
2019-02-14T13:31:07.045Z,10.47
2019-02-14T13:33:36.364Z,10.97
2019-02-14T13:36:26.163Z,11.87
2019-02-14T13:38:55.587Z,11.10
2019-02-14T13:41:31.138Z,9.97
2019-02-14T13:43:56.024Z,10.47
2019-02-14T13:46:25.405Z,11.13
2019-02-14T13:48:54.792Z,11.30
2019-02-14T13:51:43.174Z,11.33
2019-02-14T13:54:12.485Z,11.00
2019-02-14T13:56:42.100Z,10.57
2019-02-14T13:59:11.498Z,11.03
2019-02-14T14:01:40.830Z,11.43
2019-02-14T14:04:29.110Z,11.93
2019-02-14T14:06:58.450Z,10.60
2019-02-14T14:09:27.899Z,10.90
2019-02-14T14:11:57.237Z,11.23
2019-02-14T14:14:26.617Z,11.37
2019-02-14T14:16:55.996Z,12.03
2019-02-14T14:19:25.516Z,10.73
2019-02-14T14:21:54.829Z,11.03
2019-02-14T14:24:24.244Z,11.80
2019-02-14T14:26:53.579Z,11.03
2019-02-14T14:29:23.245Z,12.10
2019-02-14T14:31:52.552Z,10.93
2019-02-14T14:34:22.093Z,11.70
2019-02-14T14:36:51.427Z,11.47
2019-02-14T14:39:20.996Z,11.83
2019-02-14T14:41:50.348Z,10.50
2019-02-14T14:44:39.125Z,11.93
2019-02-14T14:47:27.487Z,11.47
2019-02-14T14:49:57.250Z,12.40
2019-02-14T14:52:26.583Z,11.87
2019-02-14T14:54:56.321Z,11.50
2019-02-14T14:57:25.708Z,12.57
2019-02-14T14:59:55.348Z,12.57
2019-02-14T15:02:24.799Z,12.53
2019-02-14T15:04:54.330Z,12.20
2019-02-14T15:07:23.669Z,12.17
2019-02-14T15:09:57.585Z,10.83
2019-02-14T15:12:24.674Z,13.27
2019-02-14T15:15:13.021Z,13.40
2019-02-14T15:17:42.728Z,12.50
2019-02-14T15:20:12.113Z,12.90
2019-02-14T15:22:41.633Z,13.13
2019-02-14T15:25:11.014Z,13.20
2019-02-14T15:27:40.672Z,12.33
2019-02-14T15:30:10.151Z,13.43
2019-02-14T15:32:39.471Z,12.40
2019-02-14T15:37:44.553Z,12.93
2019-02-14T15:40:14.539Z,13.40
2019-02-14T15:42:43.897Z,13.90
2019-02-14T15:45:13.683Z,12.93
2019-02-14T15:48:02.028Z,12.80
2019-02-14T15:50:32.192Z,13.03
2019-02-14T15:53:01.643Z,12.03
2019-02-14T15:55:31.085Z,12.63
2019-02-14T15:58:00.681Z,12.73
2019-02-14T16:00:30.742Z,12.63
2019-02-14T16:03:01.126Z,12.70
2019-02-14T16:05:30.914Z,13.00
2019-02-14T16:08:00.945Z,17.02
2019-02-14T16:10:31.534Z,13.53
2019-02-14T16:13:00.947Z,12.63
2019-02-14T16:15:31.009Z,13.00
2019-02-14T16:18:01.785Z,14.07
2019-02-14T16:20:31.108Z,13.43
2019-02-14T16:23:00.426Z,12.93
2019-02-14T16:25:30.335Z,13.23
2019-02-14T16:27:59.875Z,13.63
2019-02-14T16:30:31.106Z,13.50
2019-02-14T16:33:00.572Z,13.27
2019-02-14T16:35:29.905Z,13.93
2019-02-14T16:37:59.408Z,13.57
2019-02-14T16:40:37.972Z,12.30
2019-02-14T16:43:00.106Z,13.63
2019-02-14T16:45:29.438Z,13.63
2019-02-14T16:47:59.134Z,13.43
2019-02-14T16:50:28.480Z,13.80
2019-02-14T16:52:58.025Z,15.47
2019-02-14T16:55:27.399Z,14.43
2019-02-14T16:57:56.840Z,14.40
2019-02-14T17:00:26.184Z,14.37
2019-02-14T17:03:14.519Z,14.43
2019-02-14T17:05:43.931Z,13.53
2019-02-14T17:08:13.237Z,12.63
2019-02-14T17:10:42.853Z,14.70
2019-02-14T17:13:12.161Z,13.90
2019-02-14T17:15:41.518Z,13.60
2019-02-14T17:18:10.913Z,14.03
2019-02-14T17:20:40.513Z,15.40
2019-02-14T17:23:09.841Z,15.07
2019-02-14T17:25:39.240Z,15.03
2019-02-14T17:28:08.608Z,13.27
2019-02-14T17:30:38.093Z,13.77
2019-02-14T17:33:07.462Z,13.40
2019-02-14T17:35:36.854Z,12.67
2019-02-14T17:38:06.155Z,12.53
2019-02-14T17:40:35.569Z,13.17
2019-02-14T17:43:04.908Z,13.13
2019-02-14T17:45:34.252Z,12.90
2019-02-14T17:48:03.568Z,13.80
2019-02-14T17:50:32.983Z,14.47
2019-02-14T17:53:02.289Z,13.37
2019-02-14T17:55:50.697Z,12.57
2019-02-14T18:01:27.368Z,12.50
2019-02-14T18:04:15.775Z,13.37
2019-02-14T18:06:45.518Z,12.40
2019-02-14T18:09:14.846Z,13.30
2019-02-14T18:11:44.524Z,12.53
2019-02-14T18:14:13.822Z,12.33
2019-02-14T18:17:02.200Z,13.53
2019-02-14T18:19:31.697Z,13.77
2019-02-14T18:22:20.200Z,13.97
2019-02-14T18:24:49.540Z,13.37
2019-02-14T18:27:18.991Z,13.07
2019-02-14T18:29:48.292Z,13.03
2019-02-14T18:32:17.853Z,14.57
2019-02-14T18:34:47.170Z,14.60
2019-02-14T18:37:35.562Z,14.77
2019-02-14T18:40:05.297Z,13.87
2019-02-14T18:42:34.674Z,14.47
2019-02-14T18:45:04.421Z,14.30
2019-02-14T18:47:39.451Z,14.53
2019-02-14T18:50:04.817Z,14.23
2019-02-14T18:52:34.149Z,14.20
2019-02-14T18:55:03.447Z,14.13
2019-02-14T18:57:32.796Z,14.30
2019-02-14T19:00:02.459Z,14.10
2019-02-14T19:02:31.846Z,14.50
2019-02-14T19:05:01.458Z,14.27
2019-02-14T19:07:31.579Z,13.17
2019-02-14T19:10:01.959Z,15.27
2019-02-14T19:12:31.376Z,15.10
2019-02-14T19:15:00.694Z,15.07
2019-02-14T19:17:30.193Z,14.40
2019-02-14T19:19:59.563Z,14.47
2019-02-14T19:22:29.119Z,13.47
2019-02-14T19:24:58.570Z,13.97
2019-02-14T19:27:28.023Z,13.80
2019-02-14T19:30:16.384Z,14.20
2019-02-14T19:32:49.241Z,12.87
2019-02-14T19:35:38.994Z,14.17
2019-02-14T19:38:08.679Z,12.90
2019-02-14T19:40:38.059Z,12.73
2019-02-14T19:43:07.778Z,14.43
2019-02-14T19:45:37.125Z,13.27
2019-02-14T19:48:06.691Z,15.00
2019-02-14T19:50:36.007Z,13.90
2019-02-14T19:53:05.495Z,15.00
2019-02-14T19:55:34.996Z,15.20
2019-02-14T19:58:04.574Z,14.70
2019-02-14T20:00:33.958Z,13.50
2019-02-14T20:03:03.890Z,13.90
2019-02-14T20:05:52.484Z,14.17
2019-02-14T20:08:25.315Z,13.67
2019-02-14T20:10:54.889Z,13.27
2019-02-14T20:13:24.281Z,13.33
2019-02-14T20:15:53.620Z,14.13
2019-02-14T20:18:23.139Z,14.53
2019-02-14T20:20:52.581Z,13.87
2019-02-14T20:23:22.253Z,13.70
2019-02-14T20:25:51.648Z,14.40
2019-02-14T20:28:21.153Z,13.57
2019-02-14T20:30:50.454Z,13.53
2019-02-14T20:33:19.826Z,12.73
2019-02-14T20:36:08.185Z,13.83
2019-02-14T20:38:37.598Z,14.10
2019-02-14T20:41:06.984Z,14.80
2019-02-14T20:43:36.512Z,14.17
2019-02-14T20:46:20.168Z,12.90
2019-02-14T20:48:40.148Z,14.03
2019-02-14T20:51:38.260Z,13.20
2019-02-14T20:54:01.427Z,12.00
2019-02-14T20:56:30.995Z,14.37
2019-02-14T20:59:00.437Z,14.50
2019-02-14T21:01:30.274Z,14.20
2019-02-14T21:03:59.783Z,13.50
2019-02-14T21:06:29.191Z,13.03
2019-02-14T21:08:58.791Z,13.90
2019-02-14T21:11:28.277Z,14.53
2019-02-14T21:13:57.734Z,15.17
2019-02-14T21:16:46.253Z,14.90
2019-02-14T21:19:18.348Z,14.33
2019-02-14T21:21:47.688Z,15.17
2019-02-14T21:24:17.463Z,14.27
2019-02-14T21:26:46.892Z,15.77
2019-02-14T21:29:16.293Z,14.27
2019-02-14T21:31:45.642Z,13.80
2019-02-14T21:34:15.421Z,15.07
2019-02-14T21:36:44.890Z,13.73
2019-02-14T21:39:14.543Z,14.73
2019-02-14T21:41:43.857Z,14.27
2019-02-14T21:44:13.228Z,14.37
2019-02-14T21:46:42.604Z,14.87
2019-02-14T21:49:31.053Z,14.00
2019-02-14T21:52:00.908Z,13.57
2019-02-14T21:57:20.794Z,13.93
2019-02-14T21:59:50.499Z,15.07
2019-02-14T22:02:19.967Z,13.73
2019-02-14T22:04:49.896Z,14.67
2019-02-14T22:07:19.268Z,14.60
2019-02-14T22:10:07.711Z,15.33
2019-02-14T22:12:41.736Z,14.20
2019-02-14T22:15:31.677Z,15.10
2019-02-14T22:20:49.551Z,14.40
2019-02-14T22:23:19.114Z,14.40
2019-02-14T22:26:07.644Z,15.27
2019-02-14T22:31:25.902Z,13.77
2019-02-14T22:33:55.222Z,14.87
2019-02-14T22:39:18.315Z,15.37
2019-02-14T22:41:47.937Z,14.57
2019-02-14T22:44:17.324Z,14.47
2019-02-14T22:46:47.061Z,14.30
2019-02-14T22:49:16.390Z,14.93
2019-02-14T22:51:46.112Z,14.03
2019-02-14T22:54:15.501Z,14.33
2019-02-14T22:56:45.032Z,14.47
2019-02-14T22:59:14.375Z,14.93
2019-02-14T23:01:45.131Z,14.70
2019-02-14T23:04:14.441Z,13.97
2019-02-14T23:06:44.472Z,13.90
2019-02-14T23:09:14.051Z,15.20
2019-02-14T23:11:46.938Z,13.57
2019-02-14T23:14:16.352Z,14.93
2019-02-14T23:16:45.844Z,14.77
2019-02-14T23:19:15.364Z,13.63
2019-02-14T23:21:44.691Z,14.30
2019-02-14T23:24:14.393Z,13.67
2019-02-14T23:26:43.743Z,13.83
2019-02-14T23:29:13.419Z,14.10
2019-02-14T23:31:42.706Z,13.53
2019-02-14T23:34:12.748Z,14.47
2019-02-14T23:37:01.619Z,12.83
2019-02-14T23:39:31.028Z,14.03
2019-02-14T23:42:00.570Z,12.87
2019-02-14T23:44:29.890Z,13.67
2019-02-14T23:46:59.541Z,12.30
2019-02-14T23:49:28.851Z,13.37
2019-02-14T23:51:58.288Z,12.10
2019-02-14T23:54:27.589Z,13.17
2019-02-14T23:56:57.296Z,13.03
2019-02-14T23:59:26.653Z,12.30
